Login to view Products
 
Monday, April 23, 2018 (22:41 UTC)
Fujairah International Airport
ICAO: OMFJ
IATA: FJR
  • METAR OMFJ 232200Z 20002KT 7000 NSC 27/21 Q1009 RMK A2981=
  • TAF OMFJ 231700Z 2318/2424 15004KT 7000 NSC PROB30 2320/2403 VRB03KT 5000 HZ BECMG 2406/2408 09010KT BECMG 2414/2416 14005KT =
D:\Input Parser\Destinations\Final\17\OMFJL18241700858546155.txt